British Robin — MGSH7 — position and weather

sailwx.info

Track history (hours):
 
Tides and Currents Weather Stations Pressure Air Temp Water Temp Dewpoint Dewpoint Depression Visibility Wind Speed Wind Dir Waves Ship Positions

British Robin

Last reported at 2017-Sep-19 18:31 UTC. Time now 2017-Sep-19 18:38 UTC.
Position N 39°40' W 075°32'.

Length 251.5 m; beam 43.9 m; draft 15 m.

Type: Tanker. MMSI: 232156000.

Date/timePositionNaut miles runAvg speedWind from/ knotsBaromVisibWave heightAir tempDewpointWater temp
2017-Sep-19 18:31N 39°40' W 075°32'2 4.5
2017-Sep-19 17:58N 39°42' W 075°30'0 0.2
2017-Sep-19 17:28N 39°42' W 075°31'0 0.2
2017-Sep-19 16:58N 39°42' W 075°30'0 0.1
2017-Sep-19 16:28N 39°42' W 075°30'0 0.0
2017-Sep-19 15:58N 39°42' W 075°30'0 0.1
2017-Sep-19 15:28N 39°42' W 075°30'0 0.0
2017-Sep-19 14:58N 39°43' W 075°30'0 0.0
2017-Sep-19 14:28N 39°42' W 075°30'0 0.0
2017-Sep-19 13:58N 39°42' W 075°30'0 0.0
2017-Sep-19 13:28N 39°42' W 075°30'0 0.1
2017-Sep-19 12:58N 39°42' W 075°30'0 0.1
2017-Sep-19 12:28N 39°42' W 075°30'0 0.5
2017-Sep-19 11:58N 39°42' W 075°31'0 0.2
2017-Sep-19 11:28N 39°42' W 075°30'0 0.0
2017-Sep-19 10:58N 39°42' W 075°30'0 0.0
2017-Sep-19 10:28N 39°42' W 075°30'0 0.0
2017-Sep-19 09:58N 39°42' W 075°30'0 0.0
2017-Sep-19 09:28N 39°42' W 075°30'0 0.0
2017-Sep-19 08:58N 39°42' W 075°31'0 0.0
2017-Sep-19 08:28N 39°42' W 075°31'0 0.0
2017-Sep-19 07:58N 39°42' W 075°30'0 0.0
2017-Sep-19 07:28N 39°42' W 075°31'0 0.0
2017-Sep-19 07:00N 39°42' W 075°31'1 2.0
2017-Sep-19 06:30N 39°41' W 075°31'4 7.5
2017-Sep-19 06:00N 39°38' W 075°34'5 9.1
2017-Sep-19 05:30N 39°34' W 075°33'2 4.5
2017-Sep-19 05:00N 39°35' W 075°35'0 0.2
2017-Sep-19 04:30N 39°35' W 075°35'0 0.0
2017-Sep-19 04:00N 39°35' W 075°35'0 0.0
2017-Sep-19 03:30N 39°35' W 075°35'0 0.0
2017-Sep-19 03:00N 39°35' W 075°35'0 0.0
2017-Sep-19 02:30N 39°35' W 075°35'0 0.0
2017-Sep-19 02:00N 39°35' W 075°35'0 0.0
2017-Sep-19 01:30N 39°35' W 075°35'0 0.0
2017-Sep-19 01:00N 39°35' W 075°35'0 0.0
2017-Sep-19 00:30N 39°35' W 075°35'0 0.0
2017-Sep-19 00:00N 39°35' W 075°35'0 0.0
2017-Sep-18 23:30N 39°35' W 075°35'0 0.0
2017-Sep-18 23:00N 39°35' W 075°35'0 0.0
2017-Sep-18 22:30N 39°35' W 075°35'0 0.0
2017-Sep-18 22:00N 39°35' W 075°35'0 0.0
2017-Sep-18 21:30N 39°35' W 075°35'0 0.0
2017-Sep-18 21:00N 39°35' W 075°35'0 0.0
2017-Sep-18 20:30N 39°35' W 075°35'0 0.0
2017-Sep-18 20:00N 39°35' W 075°35'0 0.0
2017-Sep-18 19:30N 39°35' W 075°35'0 0.0
2017-Sep-18 19:00N 39°35' W 075°35'0 0.0
2017-Sep-18 18:30N 39°35' W 075°35'0 0.0
2017-Sep-18 18:00N 39°35' W 075°35'0 0.0
2017-Sep-18 17:30N 39°35' W 075°35'0 0.0
2017-Sep-18 17:00N 39°35' W 075°35'0 0.0
2017-Sep-18 16:30N 39°35' W 075°35'0 0.0
2017-Sep-18 16:00N 39°35' W 075°35'0 0.0
2017-Sep-18 15:30N 39°35' W 075°35'0 0.0
2017-Sep-18 15:00N 39°35' W 075°35'0 0.0
2017-Sep-18 14:30N 39°35' W 075°35'0 0.0
2017-Sep-18 14:00N 39°35' W 075°35'0 0.0
2017-Sep-18 13:30N 39°35' W 075°35'0 0.0
2017-Sep-18 13:00N 39°35' W 075°35'0 0.0
2017-Sep-18 12:30N 39°35' W 075°35'0 0.0
2017-Sep-18 12:00N 39°35' W 075°35'0 0.0
2017-Sep-18 11:30N 39°35' W 075°35'0 0.0
2017-Sep-18 11:00N 39°35' W 075°35'0 0.0
2017-Sep-18 10:30N 39°35' W 075°35'0 0.0
2017-Sep-18 10:00N 39°35' W 075°35'0 0.0
2017-Sep-18 09:30N 39°35' W 075°35'0 0.0
2017-Sep-18 09:00N 39°35' W 075°35'0 0.0
2017-Sep-18 08:30N 39°35' W 075°35'0 0.0
2017-Sep-18 08:00N 39°35' W 075°35'0 0.0
2017-Sep-18 07:30N 39°35' W 075°35'0 0.0
2017-Sep-18 07:00N 39°35' W 075°35'0 0.0
2017-Sep-18 06:30N 39°35' W 075°35'0 0.0
2017-Sep-18 06:00N 39°35' W 075°35'0 0.0
2017-Sep-18 05:30N 39°35' W 075°35'0 0.0
2017-Sep-18 05:00N 39°35' W 075°35'0 0.0
2017-Sep-18 04:30N 39°35' W 075°35'0 0.1
2017-Sep-18 04:01N 39°35' W 075°35'2 4.4
2017-Sep-18 03:30N 39°34' W 075°33'3 6.3
2017-Sep-18 03:00N 39°31' W 075°33'4 8.1
2017-Sep-18 02:30N 39°27' W 075°33'612.3
2017-Sep-18 02:00N 39°22' W 075°27'510.3
2017-Sep-18 01:31N 39°18' W 075°23'510.2
2017-Sep-18 01:00N 39°14' W 075°19'612.2
2017-Sep-18 00:30N 39°09' W 075°15'510.4
2017-Sep-18 00:01N 39°05' W 075°11'510.2
2017-Sep-17 23:31N 38°60' W 075°08'510.6
2017-Sep-17 23:01N 38°55' W 075°06'3 5.7
2017-Sep-17 22:30N 38°55' W 075°09'4 8.0
2017-Sep-17 22:00N 38°58' W 075°12'0 0.1
2017-Sep-17 19:48N 38°58' W 075°12'0 0.5
2017-Sep-17 19:30N 38°58' W 075°12'0 0.2
2017-Sep-17 19:00N 38°58' W 075°12'4407.7
2017-Sep-17 19:00N 38°54' W 075°12'4 8.4 180 / 61019.1 5.4 24.020.221.2
2017-Sep-17 18:30N 38°58' W 075°12'0 0.1
2017-Sep-17 18:00N 38°58' W 075°12'0 0.0
2017-Sep-17 17:30N 38°58' W 075°12'0 0.0
2017-Sep-17 17:00N 38°58' W 075°12'0 0.0
2017-Sep-17 16:30N 38°58' W 075°12'0 0.0
2017-Sep-17 16:00N 38°58' W 075°12'4474.6
2017-Sep-17 16:00N 38°54' W 075°12'4 8.3 360 / 121019.810.8 24.519.121.1
2017-Sep-17 15:30N 38°58' W 075°12'0 0.0
2017-Sep-17 15:00N 38°58' W 075°12'0 0.0
2017-Sep-17 14:30N 38°58' W 075°12'0 0.0
2017-Sep-17 14:00N 38°58' W 075°12'0 0.4
2017-Sep-17 13:30N 38°58' W 075°12'0 0.2
2017-Sep-17 12:54N 38°58' W 075°12'0 0.1
2017-Sep-17 12:30N 38°58' W 075°12'0 0.0
2017-Sep-17 11:57N 38°58' W 075°12'0 0.1
2017-Sep-17 11:24N 38°58' W 075°12'0 0.0
2017-Sep-17 11:00N 38°58' W 075°12'0 0.0
2017-Sep-17 10:24N 38°58' W 075°12'0 0.0
2017-Sep-17 09:57N 38°58' W 075°12'0 0.0
2017-Sep-17 09:21N 38°58' W 075°12'0 0.0
2017-Sep-17 08:51N 38°58' W 075°12'0 0.0
2017-Sep-17 08:30N 38°58' W 075°12'0 0.1
2017-Sep-17 07:57N 38°58' W 075°12'0 0.3
2017-Sep-17 07:27N 38°58' W 075°12'0 0.2
2017-Sep-17 06:57N 38°58' W 075°12'0 0.2
2017-Sep-17 06:30N 38°58' W 075°12'0 0.1
2017-Sep-17 06:00N 38°58' W 075°12'0 0.1
2017-Sep-17 05:30N 38°58' W 075°12'0 0.0
2017-Sep-17 05:00N 38°58' W 075°12'0 0.0
2017-Sep-17 04:30N 38°58' W 075°12'0 0.0
2017-Sep-17 04:00N 38°58' W 075°12'0 0.0
2017-Sep-17 03:30N 38°58' W 075°12'0 0.0
2017-Sep-17 02:57N 38°58' W 075°12'0 0.0
2017-Sep-17 02:30N 38°58' W 075°12'0 0.1
2017-Sep-17 02:00N 38°58' W 075°12'0 0.0
2017-Sep-17 01:30N 38°58' W 075°12'0 0.2
2017-Sep-17 01:00N 38°58' W 075°12'0 0.2
2017-Sep-17 00:30N 38°58' W 075°12'0 0.1
2017-Sep-17 00:00N 38°58' W 075°12'0 0.0
2017-Sep-16 23:30N 38°58' W 075°12'0 0.0
2017-Sep-16 23:00N 38°58' W 075°12'0 0.0
2017-Sep-16 22:30N 38°58' W 075°12'0 0.0
2017-Sep-16 22:00N 38°58' W 075°12'0 0.0
2017-Sep-16 21:26N 38°58' W 075°12'0 0.0
2017-Sep-16 20:56N 38°58' W 075°12'0 0.0
2017-Sep-16 20:29N 38°58' W 075°12'4 8.7
2017-Sep-16 20:00N 38°54' W 075°12'43920.6 150 / 101019.4 5.4 24.021.020.9
2017-Sep-16 19:59N 38°58' W 075°12'0 0.0
2017-Sep-16 19:14N 38°58' W 075°12'0 0.0
2017-Sep-16 18:59N 38°58' W 075°12'0 0.1
2017-Sep-16 18:29N 38°58' W 075°12'0 0.3
2017-Sep-16 17:59N 38°58' W 075°12'0 0.2
2017-Sep-16 17:29N 38°58' W 075°12'0 0.1
2017-Sep-16 16:59N 38°58' W 075°12'0 0.0
2017-Sep-16 16:29N 38°58' W 075°12'0 0.0
2017-Sep-16 15:59N 38°58' W 075°12'0 0.0
2017-Sep-16 15:29N 38°58' W 075°12'0 0.0
2017-Sep-16 14:59N 38°58' W 075°12'0 0.0
2017-Sep-16 14:29N 38°58' W 075°12'0 0.0
2017-Sep-16 13:59N 38°58' W 075°12'0 0.0
2017-Sep-16 13:29N 38°58' W 075°12'0 0.0
2017-Sep-16 12:59N 38°58' W 075°12'0 0.3
2017-Sep-16 12:29N 38°58' W 075°12'4 8.6
2017-Sep-16 12:00N 38°54' W 075°12'4820.8 320 / 61019.8 0.3 22.020.520.8
2017-Sep-16 11:59N 38°58' W 075°12'0 0.0
2017-Sep-16 11:29N 38°58' W 075°12'0 0.0
2017-Sep-16 10:59N 38°58' W 075°12'0 0.0
2017-Sep-16 10:29N 38°58' W 075°12'0 0.0
2017-Sep-16 09:59N 38°58' W 075°12'0 0.0
2017-Sep-16 09:29N 38°58' W 075°12'0 0.0
2017-Sep-16 08:59N 38°58' W 075°12'0 0.0
2017-Sep-16 08:29N 38°58' W 075°12'4 8.8
2017-Sep-16 08:00N 38°54' W 075°12'4580.0 180 / 61018.7 5.4 22.019.720.6
2017-Sep-16 07:59N 38°58' W 075°12'0 0.0
2017-Sep-16 07:29N 38°58' W 075°12'0 0.1
2017-Sep-16 06:59N 38°58' W 075°12'0 0.1
2017-Sep-16 06:29N 38°58' W 075°12'0 0.1
2017-Sep-16 05:59N 38°58' W 075°12'0 0.4
2017-Sep-16 05:29N 38°58' W 075°12'0 0.1
2017-Sep-16 04:56N 38°58' W 075°12'0 0.0
2017-Sep-16 04:29N 38°58' W 075°12'612.6
2017-Sep-16 04:00N 38°54' W 075°06'623.7 220 / 51018.510.8 23.022.320.8
2017-Sep-16 03:44N 38°58' W 075°12'0 0.0
2017-Sep-16 03:29N 38°58' W 075°12'0 0.0
2017-Sep-16 02:59N 38°58' W 075°12'0 0.0
2017-Sep-16 02:29N 38°58' W 075°12'0 0.0
2017-Sep-16 01:59N 38°58' W 075°12'0 0.0
2017-Sep-16 01:29N 38°58' W 075°12'0 0.0
2017-Sep-16 00:59N 38°58' W 075°12'0 0.1
2017-Sep-16 00:29N 38°58' W 075°12'0 0.3
2017-Sep-15 23:59N 38°58' W 075°12'0 0.2
2017-Sep-15 23:26N 38°58' W 075°12'0 0.1
2017-Sep-15 22:59N 38°58' W 075°12'0 0.0
2017-Sep-15 22:29N 38°58' W 075°12'0 0.0
2017-Sep-15 21:59N 38°58' W 075°12'0 0.0
2017-Sep-15 21:29N 38°58' W 075°12'0 0.0
2017-Sep-15 20:59N 38°58' W 075°12'4 4.4
2017-Sep-15 20:00N 38°54' W 075°12'470.0 160 / 41017.0 5.4 24.019.420.9
2017-Sep-15 19:56N 38°58' W 075°12'0 0.0
2017-Sep-15 17:41N 38°58' W 075°12'0 0.4
2017-Sep-15 17:29N 38°58' W 075°12'0 0.3
2017-Sep-15 16:59N 38°58' W 075°12'0 0.1
2017-Sep-15 16:26N 38°58' W 075°12'4 9.5
2017-Sep-15 16:00N 38°54' W 075°12'4290.2 330 / 31016.510.8 26.519.620.8
2017-Sep-15 15:59N 38°58' W 075°12'0 0.0
2017-Sep-15 15:29N 38°58' W 075°12'0 0.0
2017-Sep-15 14:59N 38°58' W 075°12'0 0.0
2017-Sep-15 14:29N 38°58' W 075°12'0 0.0
2017-Sep-15 13:59N 38°58' W 075°12'0 0.0
2017-Sep-15 13:29N 38°58' W 075°12'0 0.0
2017-Sep-15 12:59N 38°58' W 075°12'0 0.0
2017-Sep-15 12:26N 38°58' W 075°12'4 9.5
2017-Sep-15 12:00N 38°54' W 075°12'4244.0 320 / 10 10.8 23.019.920.7
2017-Sep-15 11:58N 38°58' W 075°12'0 0.1
2017-Sep-15 11:25N 38°58' W 075°12'0 0.3
2017-Sep-15 10:58N 38°58' W 075°12'0 0.1
2017-Sep-15 10:28N 38°58' W 075°12'0 0.1
2017-Sep-15 09:58N 38°58' W 075°12'0 0.0
2017-Sep-15 09:22N 38°58' W 075°12'0 0.0
2017-Sep-15 08:58N 38°58' W 075°12'0 0.0
2017-Sep-15 08:28N 38°58' W 075°12'4 9.1
2017-Sep-15 08:00N 38°54' W 075°12'4224.3 190 / 121014.7 5.4 22.018.920.3
2017-Sep-15 07:58N 38°58' W 075°12'0 0.0
2017-Sep-15 07:28N 38°58' W 075°12'0 0.0
2017-Sep-15 06:58N 38°58' W 075°12'0 0.0
2017-Sep-15 06:25N 38°58' W 075°12'0 0.1
2017-Sep-15 05:55N 38°58' W 075°12'0 0.0
2017-Sep-15 05:28N 38°58' W 075°12'0 0.1
2017-Sep-15 04:58N 38°58' W 075°12'0 0.4
2017-Sep-15 04:28N 38°58' W 075°12'612.9
2017-Sep-15 04:00N 38°54' W 075°06'6296.9 210 / 141015.510.8 22.019.720.6
2017-Sep-15 03:58N 38°58' W 075°12'0 0.1
2017-Sep-15 03:28N 38°58' W 075°12'0 0.0
2017-Sep-15 02:58N 38°58' W 075°12'0 0.0
2017-Sep-15 02:28N 38°58' W 075°12'0 0.0
2017-Sep-15 01:58N 38°58' W 075°12'0 0.0
2017-Sep-15 01:28N 38°58' W 075°12'0 0.0
2017-Sep-15 00:58N 38°58' W 075°12'0 0.0
2017-Sep-15 00:28N 38°58' W 075°12'4 8.7
2017-Sep-15 00:00N 38°54' W 075°12'4189.5 220 / 101012.710.8 24.017.620.6
2017-Sep-14 23:58N 38°58' W 075°12'0 0.0
2017-Sep-14 23:28N 38°58' W 075°12'0 0.1
2017-Sep-14 22:58N 38°58' W 075°12'0 0.1
2017-Sep-14 22:28N 38°58' W 075°12'0 0.2
2017-Sep-14 21:58N 38°58' W 075°12'0 0.1
2017-Sep-14 21:28N 38°58' W 075°12'0 0.1
2017-Sep-14 20:58N 38°58' W 075°12'0 0.0
2017-Sep-14 20:01N 38°58' W 075°12'0 0.0
2017-Sep-14 19:58N 38°58' W 075°12'0 0.0
2017-Sep-14 19:28N 38°58' W 075°12'0 0.0
2017-Sep-14 18:58N 38°58' W 075°12'0 0.0
2017-Sep-14 18:19N 38°58' W 075°12'0 0.0
2017-Sep-14 17:55N 38°58' W 075°12'0 0.0
2017-Sep-14 17:25N 38°58' W 075°12'0 0.0
2017-Sep-14 16:58N 38°58' W 075°12'0 0.1
2017-Sep-14 16:22N 38°58' W 075°12'617.1
2017-Sep-14 16:00N 38°54' W 075°06'6239.6 200 / 91013.410.8 25.018.820.4
2017-Sep-14 15:58N 38°58' W 075°12'0 0.3
2017-Sep-14 15:28N 38°58' W 075°12'0 0.1
2017-Sep-14 14:58N 38°58' W 075°12'0 0.0
2017-Sep-14 14:28N 38°58' W 075°12'0 0.0
2017-Sep-14 13:58N 38°58' W 075°12'0 0.1
2017-Sep-14 13:28N 38°58' W 075°12'0 0.0
2017-Sep-14 12:55N 38°58' W 075°12'0 0.0
2017-Sep-14 12:25N 38°58' W 075°12'4 9.8
2017-Sep-14 12:00N 38°54' W 075°12'4147.0 220 / 181012.110.8 22.520.220.3
2017-Sep-14 11:58N 38°58' W 075°12'0 0.1
2017-Sep-14 11:28N 38°58' W 075°12'0 0.1
2017-Sep-14 10:52N 38°58' W 075°12'0 0.0
2017-Sep-14 10:26N 38°58' W 075°12'0 0.1
2017-Sep-14 09:59N 38°58' W 075°12'0 0.1
2017-Sep-14 09:29N 38°58' W 075°12'0 0.1
2017-Sep-14 08:59N 38°58' W 075°12'0 0.0
2017-Sep-14 08:29N 38°58' W 075°12'4 8.9
2017-Sep-14 08:00N 38°54' W 075°12'4490.1 180 / 151012.4 5.4 21.017.820.4
2017-Sep-14 07:59N 38°58' W 075°12'0 0.0
2017-Sep-14 07:29N 38°58' W 075°12'0 0.0
2017-Sep-14 06:59N 38°58' W 075°12'0 0.0
2017-Sep-14 06:29N 38°58' W 075°12'0 0.0
2017-Sep-14 05:59N 38°58' W 075°12'0 0.0
2017-Sep-14 05:29N 38°58' W 075°12'0 0.0
2017-Sep-14 04:59N 38°58' W 075°12'0 0.1
2017-Sep-14 04:29N 38°58' W 075°12'4 8.9
2017-Sep-14 04:00N 38°54' W 075°12'4394.0 190 / 111012.410.8 22.021.220.4
2017-Sep-14 03:59N 38°58' W 075°12'0 0.2
2017-Sep-14 03:23N 38°58' W 075°12'0 0.0
2017-Sep-14 02:59N 38°58' W 075°12'0 0.1
2017-Sep-14 02:29N 38°58' W 075°12'0 0.1
2017-Sep-14 01:59N 38°58' W 075°12'0 0.0
2017-Sep-14 01:29N 38°58' W 075°12'0 0.0
2017-Sep-14 00:59N 38°58' W 075°12'0 0.0
2017-Sep-14 00:29N 38°58' W 075°12'4 8.4
2017-Sep-14 00:00N 38°54' W 075°12'4336.8 170 / 101010.510.8 23.019.920.4
2017-Sep-13 23:59N 38°58' W 075°12'0 0.0
2017-Sep-13 23:29N 38°58' W 075°12'0 0.1
2017-Sep-13 22:59N 38°58' W 075°12'0 0.3
2017-Sep-13 22:29N 38°58' W 075°12'0 0.1
2017-Sep-13 21:59N 38°58' W 075°12'0 0.1
2017-Sep-13 21:29N 38°58' W 075°12'0 0.1
2017-Sep-13 20:59N 38°58' W 075°12'0 0.0
2017-Sep-13 20:26N 38°58' W 075°12'0 0.0
2017-Sep-13 19:59N 38°58' W 075°12'0 0.0
2017-Sep-13 17:56N 38°58' W 075°12'0 0.0
2017-Sep-13 17:26N 38°58' W 075°12'0 0.0
2017-Sep-13 16:59N 38°58' W 075°12'0 0.0
2017-Sep-13 16:26N 38°58' W 075°12'410.0
2017-Sep-13 16:00N 38°54' W 075°12'437.5 150 / 141014.1 5.4 22.021.220.3
2017-Sep-13 15:53N 38°58' W 075°12'0 0.0
2017-Sep-13 15:29N 38°58' W 075°12'0 0.0
2017-Sep-13 14:56N 38°58' W 075°12'0 0.3
2017-Sep-13 14:29N 38°58' W 075°12'0 0.3
2017-Sep-13 13:58N 38°58' W 075°12'0 0.0
2017-Sep-13 13:25N 38°58' W 075°12'0 0.1
2017-Sep-13 12:58N 38°58' W 075°12'0 0.0
2017-Sep-13 12:28N 38°58' W 075°12'4 8.5
2017-Sep-13 12:00N 38°54' W 075°12'4217.3 150 / 91013.910.8 21.017.820.3
2017-Sep-13 11:58N 38°58' W 075°12'0 0.0
2017-Sep-13 11:25N 38°58' W 075°12'0 0.0
2017-Sep-13 10:58N 38°58' W 075°12'0 0.0
2017-Sep-13 10:28N 38°58' W 075°12'0 0.0
2017-Sep-13 09:58N 38°58' W 075°12'0 0.2
2017-Sep-13 09:28N 38°58' W 075°12'0 0.3
2017-Sep-13 08:58N 38°58' W 075°12'0 0.1
2017-Sep-13 08:28N 38°58' W 075°12'0 0.0
2017-Sep-13 07:58N 38°58' W 075°12'0 0.0
2017-Sep-13 07:28N 38°58' W 075°12'0 0.0
2017-Sep-13 06:58N 38°58' W 075°12'0 0.0
2017-Sep-13 06:28N 38°58' W 075°12'0 0.0
2017-Sep-13 05:58N 38°58' W 075°12'0 0.0
2017-Sep-13 05:28N 38°58' W 075°12'0 0.0
2017-Sep-13 04:58N 38°58' W 075°12'0 0.0
2017-Sep-13 04:28N 38°58' W 075°12'0 0.0
2017-Sep-13 03:58N 38°58' W 075°12'0 0.0
2017-Sep-13 03:25N 38°58' W 075°12'0 0.2
2017-Sep-13 02:58N 38°58' W 075°12'0 0.3
2017-Sep-13 02:28N 38°58' W 075°12'0 0.1
2017-Sep-13 01:58N 38°58' W 075°12'0 0.1
2017-Sep-13 01:28N 38°58' W 075°12'0 0.0
2017-Sep-13 00:58N 38°58' W 075°12'0 0.0
2017-Sep-13 00:28N 38°58' W 075°12'0 0.1
2017-Sep-12 23:58N 38°58' W 075°12'0 0.0
2017-Sep-12 23:28N 38°58' W 075°12'0 0.0
2017-Sep-12 22:55N 38°58' W 075°12'0 0.0
2017-Sep-12 22:28N 38°58' W 075°12'0 0.0
2017-Sep-12 21:55N 38°58' W 075°12'0 0.1
2017-Sep-12 21:28N 38°58' W 075°12'0 0.1
2017-Sep-12 20:58N 38°58' W 075°12'0 0.2
2017-Sep-12 20:28N 38°58' W 075°12'4 9.1
2017-Sep-12 20:00N 38°54' W 075°12'4170.2 220 / 51015.0 5.4 21.014.220.4
2017-Sep-12 19:58N 38°58' W 075°12'0 0.1
2017-Sep-12 19:28N 38°58' W 075°12'0 0.1
2017-Sep-12 18:52N 38°58' W 075°12'0 0.0
2017-Sep-12 18:28N 38°58' W 075°12'0 0.0
2017-Sep-12 16:52N 38°58' W 075°12'0 0.0
2017-Sep-12 16:28N 38°58' W 075°12'0 0.0
2017-Sep-12 15:58N 38°58' W 075°12'0 0.0
2017-Sep-12 15:25N 38°58' W 075°12'0 0.1
2017-Sep-12 14:55N 38°58' W 075°12'0 0.1
2017-Sep-12 14:25N 38°58' W 075°12'0 0.2
2017-Sep-12 13:58N 38°58' W 075°12'0 0.3
2017-Sep-12 13:28N 38°58' W 075°12'0 0.2
2017-Sep-12 12:58N 38°58' W 075°12'0 0.0
2017-Sep-12 09:13N 38°58' W 075°12'0 0.0
2017-Sep-12 08:55N 38°58' W 075°12'0 0.0
2017-Sep-12 08:28N 38°58' W 075°12'0 0.1
2017-Sep-12 07:52N 38°58' W 075°12'0 0.2
2017-Sep-12 07:28N 38°58' W 075°12'0 0.1
2017-Sep-12 06:58N 38°58' W 075°12'0 0.1
2017-Sep-12 06:28N 38°58' W 075°12'0 0.0
2017-Sep-12 05:58N 38°58' W 075°12'0 0.0
2017-Sep-12 05:28N 38°58' W 075°12'0 0.0
2017-Sep-12 04:55N 38°58' W 075°12'0 0.0
2017-Sep-12 04:30N 38°58' W 075°12'0 0.0
2017-Sep-12 04:00N 38°58' W 075°12'4270.0
2017-Sep-12 04:00N 38°54' W 075°12'4 8.1 280 / 51021.110.8 19.514.420.6
2017-Sep-12 03:27N 38°58' W 075°12'0 0.0
2017-Sep-12 02:57N 38°58' W 075°12'0 0.2
2017-Sep-12 02:30N 38°58' W 075°12'0 0.2
2017-Sep-12 02:00N 38°58' W 075°12'0 0.0
2017-Sep-12 01:27N 38°58' W 075°12'0 0.1
2017-Sep-12 01:00N 38°58' W 075°12'0 0.1
2017-Sep-12 00:30N 38°58' W 075°12'0 0.0
2017-Sep-11 23:57N 38°58' W 075°12'0 0.0
2017-Sep-11 23:30N 38°58' W 075°12'0 0.0
2017-Sep-11 23:00N 38°58' W 075°12'0 0.0
2017-Sep-11 22:30N 38°58' W 075°12'0 0.0
2017-Sep-11 22:00N 38°58' W 075°12'0 0.0
2017-Sep-11 21:30N 38°58' W 075°12'0 0.0
2017-Sep-11 21:00N 38°58' W 075°12'0 0.1
2017-Sep-11 20:30N 38°58' W 075°12'0 0.1
2017-Sep-11 20:00N 38°58' W 075°12'0 0.2
2017-Sep-11 19:30N 38°58' W 075°12'0 0.2
2017-Sep-11 19:00N 38°58' W 075°12'0 0.2
2017-Sep-11 18:30N 38°58' W 075°12'0 0.1
2017-Sep-11 18:00N 38°58' W 075°12'4 2.2
2017-Sep-11 16:00N 38°54' W 075°12'4 5.2 050 / 121026.010.8 19.013.820.4
2017-Sep-11 15:09N 38°58' W 075°12'0 0.0
2017-Sep-11 15:00N 38°58' W 075°12'0 0.0
2017-Sep-11 14:30N 38°58' W 075°12'0 0.2
2017-Sep-11 13:57N 38°58' W 075°12'0 0.1
2017-Sep-11 13:30N 38°58' W 075°12'0 0.2
2017-Sep-11 13:00N 38°58' W 075°12'0 0.1
2017-Sep-11 12:30N 38°58' W 075°12'0 0.0
2017-Sep-11 12:00N 38°58' W 075°12'0 0.0
2017-Sep-11 11:30N 38°58' W 075°12'0 0.1
2017-Sep-11 11:00N 38°58' W 075°12'6738.9
2017-Sep-11 11:00N 38°54' W 075°06'612.5 050 / 131017.310.8 18.013.620.3
2017-Sep-11 10:30N 38°58' W 075°12'0 0.0
2017-Sep-11 10:00N 38°58' W 075°12'0 0.0
2017-Sep-11 09:30N 38°58' W 075°12'0 0.0
2017-Sep-11 09:00N 38°58' W 075°12'0 0.0
2017-Sep-11 08:30N 38°58' W 075°12'0 0.1
2017-Sep-11 08:00N 38°58' W 075°12'0 0.1
2017-Sep-11 07:30N 38°58' W 075°12'0 0.4
2017-Sep-11 06:54N 38°58' W 075°12'0 0.1
2017-Sep-11 06:27N 38°58' W 075°12'0 0.1
2017-Sep-11 05:51N 38°58' W 075°12'0 0.0
2017-Sep-11 02:45N 38°58' W 075°12'0 0.0
2017-Sep-11 02:00N 38°58' W 075°12'0 0.2
2017-Sep-11 01:27N 38°58' W 075°12'0 0.4
2017-Sep-11 01:00N 38°58' W 075°12'0 0.2
2017-Sep-11 00:30N 38°58' W 075°12'0 0.0
2017-Sep-11 00:00N 38°58' W 075°12'0 0.1
2017-Sep-10 23:30N 38°58' W 075°12'0 0.0
2017-Sep-10 23:00N 38°58' W 075°12'0 0.0
2017-Sep-10 22:27N 38°58' W 075°12'0 0.0
2017-Sep-10 22:00N 38°58' W 075°12'0 0.0
2017-Sep-10 21:30N 38°58' W 075°12'0 0.0
2017-Sep-10 21:00N 38°58' W 075°12'0 0.0
2017-Sep-10 20:30N 38°58' W 075°12'0 0.0
2017-Sep-10 19:57N 38°58' W 075°12'0 0.1
2017-Sep-10 19:27N 38°58' W 075°12'0 0.0
2017-Sep-10 19:00N 38°58' W 075°12'67403.2
2017-Sep-10 19:00N 38°54' W 075°06'612.5 320 / 81027.6 5.4 23.012.620.4
2017-Sep-10 18:30N 38°58' W 075°12'0 0.2
2017-Sep-10 17:21N 38°58' W 075°12'0 0.0
2017-Sep-10 16:57N 38°58' W 075°12'0 0.0
2017-Sep-10 16:30N 38°58' W 075°12'0 0.0
2017-Sep-10 16:00N 38°58' W 075°12'0 0.0
2017-Sep-10 15:29N 38°58' W 075°12'0 0.0
2017-Sep-10 14:53N 38°58' W 075°12'0 0.1
2017-Sep-10 13:59N 38°58' W 075°12'0 0.2
2017-Sep-10 13:29N 38°58' W 075°12'0 0.1
2017-Sep-10 12:50N 38°58' W 075°12'0 0.1
2017-Sep-10 12:26N 38°58' W 075°12'0 0.1
2017-Sep-10 11:59N 38°58' W 075°12'0 0.1
2017-Sep-10 11:29N 38°58' W 075°12'0 0.0
2017-Sep-10 10:59N 38°58' W 075°12'0 0.0
2017-Sep-10 10:29N 38°58' W 075°12'0 0.0
2017-Sep-10 09:56N 38°58' W 075°12'0 0.0
2017-Sep-10 09:29N 38°58' W 075°12'0 0.0
2017-Sep-10 08:59N 38°58' W 075°12'0 0.0
2017-Sep-10 08:29N 38°58' W 075°12'0 0.0
2017-Sep-10 07:59N 38°58' W 075°12'0 0.0
2017-Sep-10 07:29N 38°58' W 075°12'0 0.0
2017-Sep-10 06:59N 38°58' W 075°12'0 0.0
2017-Sep-10 06:29N 38°58' W 075°12'0 0.0
2017-Sep-10 05:59N 38°58' W 075°12'0 0.0
2017-Sep-10 05:29N 38°58' W 075°12'0 0.2
2017-Sep-10 04:59N 38°58' W 075°12'0 0.3
2017-Sep-10 04:29N 38°58' W 075°12'4 8.6
2017-Sep-10 04:00N 38°54' W 075°12'4702.1 010 / 201026.510.8 18.0 9.520.6
2017-Sep-10 03:59N 38°58' W 075°12'0 0.0
2017-Sep-10 03:29N 38°58' W 075°12'0 0.0
2017-Sep-10 02:59N 38°58' W 075°12'0 0.0
2017-Sep-10 02:29N 38°58' W 075°12'0 0.3
2017-Sep-10 01:59N 38°58' W 075°12'0 0.1
2017-Sep-10 01:29N 38°58' W 075°12'0 0.1
2017-Sep-10 00:59N 38°58' W 075°12'0 0.1
2017-Sep-10 00:26N 38°58' W 075°12'0 0.1
2017-Sep-09 23:59N 38°58' W 075°12'0 0.1
2017-Sep-09 23:26N 38°58' W 075°12'0 0.0
2017-Sep-09 22:56N 38°58' W 075°12'0 0.0
2017-Sep-09 22:29N 38°58' W 075°12'0 0.0
2017-Sep-09 21:59N 38°58' W 075°12'0 0.0
2017-Sep-09 21:29N 38°58' W 075°12'0 0.0
2017-Sep-09 20:59N 38°58' W 075°12'0 0.0
2017-Sep-09 20:26N 38°58' W 075°12'0 0.0
2017-Sep-09 19:59N 38°58' W 075°12'0 0.0
2017-Sep-09 19:29N 38°58' W 075°12'0 0.0
2017-Sep-09 18:59N 38°58' W 075°12'  
Track history (hours):
 
Tides and Currents Weather Stations Pressure Air Temp Water Temp Dewpoint Dewpoint Depression Visibility Wind Speed Wind Dir Waves Ship Positions

British Robin

Last reported at 2017-Sep-19 18:31 UTC. Time now 2017-Sep-19 18:38 UTC.
Position N 39°40' W 075°32'.

Length 251.5 m; beam 43.9 m; draft 15 m.

Type: Tanker. MMSI: 232156000.

Date/timePositionNaut miles runAvg speedWind from/ knotsBaromVisibWave heightAir tempDewpointWater temp
2017-Sep-19 18:31N 39°40' W 075°32'2 4.5
2017-Sep-19 17:58N 39°42' W 075°30'0 0.2
2017-Sep-19 17:28N 39°42' W 075°31'0 0.2
2017-Sep-19 16:58N 39°42' W 075°30'0 0.1
2017-Sep-19 16:28N 39°42' W 075°30'0 0.0
2017-Sep-19 15:58N 39°42' W 075°30'0 0.1
2017-Sep-19 15:28N 39°42' W 075°30'0 0.0
2017-Sep-19 14:58N 39°43' W 075°30'0 0.0
2017-Sep-19 14:28N 39°42' W 075°30'0 0.0
2017-Sep-19 13:58N 39°42' W 075°30'0 0.0
2017-Sep-19 13:28N 39°42' W 075°30'0 0.1
2017-Sep-19 12:58N 39°42' W 075°30'0 0.1
2017-Sep-19 12:28N 39°42' W 075°30'0 0.5
2017-Sep-19 11:58N 39°42' W 075°31'0 0.2
2017-Sep-19 11:28N 39°42' W 075°30'0 0.0
2017-Sep-19 10:58N 39°42' W 075°30'0 0.0
2017-Sep-19 10:28N 39°42' W 075°30'0 0.0
2017-Sep-19 09:58N 39°42' W 075°30'0 0.0
2017-Sep-19 09:28N 39°42' W 075°30'0 0.0
2017-Sep-19 08:58N 39°42' W 075°31'0 0.0
2017-Sep-19 08:28N 39°42' W 075°31'0 0.0
2017-Sep-19 07:58N 39°42' W 075°30'0 0.0
2017-Sep-19 07:28N 39°42' W 075°31'0 0.0
2017-Sep-19 07:00N 39°42' W 075°31'1 2.0
2017-Sep-19 06:30N 39°41' W 075°31'4 7.5
2017-Sep-19 06:00N 39°38' W 075°34'5 9.1
2017-Sep-19 05:30N 39°34' W 075°33'2 4.5
2017-Sep-19 05:00N 39°35' W 075°35'0 0.2
2017-Sep-19 04:30N 39°35' W 075°35'0 0.0
2017-Sep-19 04:00N 39°35' W 075°35'0 0.0
2017-Sep-19 03:30N 39°35' W 075°35'0 0.0
2017-Sep-19 03:00N 39°35' W 075°35'0 0.0
2017-Sep-19 02:30N 39°35' W 075°35'0 0.0
2017-Sep-19 02:00N 39°35' W 075°35'0 0.0
2017-Sep-19 01:30N 39°35' W 075°35'0 0.0
2017-Sep-19 01:00N 39°35' W 075°35'0 0.0
2017-Sep-19 00:30N 39°35' W 075°35'0 0.0
2017-Sep-19 00:00N 39°35' W 075°35'0 0.0
2017-Sep-18 23:30N 39°35' W 075°35'0 0.0
2017-Sep-18 23:00N 39°35' W 075°35'0 0.0
2017-Sep-18 22:30N 39°35' W 075°35'0 0.0
2017-Sep-18 22:00N 39°35' W 075°35'0 0.0
2017-Sep-18 21:30N 39°35' W 075°35'0 0.0
2017-Sep-18 21:00N 39°35' W 075°35'0 0.0
2017-Sep-18 20:30N 39°35' W 075°35'0 0.0
2017-Sep-18 20:00N 39°35' W 075°35'0 0.0
2017-Sep-18 19:30N 39°35' W 075°35'0 0.0
2017-Sep-18 19:00N 39°35' W 075°35'0 0.0
2017-Sep-18 18:30N 39°35' W 075°35'0 0.0
2017-Sep-18 18:00N 39°35' W 075°35'0 0.0
2017-Sep-18 17:30N 39°35' W 075°35'0 0.0
2017-Sep-18 17:00N 39°35' W 075°35'0 0.0
2017-Sep-18 16:30N 39°35' W 075°35'0 0.0
2017-Sep-18 16:00N 39°35' W 075°35'0 0.0
2017-Sep-18 15:30N 39°35' W 075°35'0 0.0
2017-Sep-18 15:00N 39°35' W 075°35'0 0.0
2017-Sep-18 14:30N 39°35' W 075°35'0 0.0
2017-Sep-18 14:00N 39°35' W 075°35'0 0.0
2017-Sep-18 13:30N 39°35' W 075°35'0 0.0
2017-Sep-18 13:00N 39°35' W 075°35'0 0.0
2017-Sep-18 12:30N 39°35' W 075°35'0 0.0
2017-Sep-18 12:00N 39°35' W 075°35'0 0.0
2017-Sep-18 11:30N 39°35' W 075°35'0 0.0
2017-Sep-18 11:00N 39°35' W 075°35'0 0.0
2017-Sep-18 10:30N 39°35' W 075°35'0 0.0
2017-Sep-18 10:00N 39°35' W 075°35'0 0.0
2017-Sep-18 09:30N 39°35' W 075°35'0 0.0
2017-Sep-18 09:00N 39°35' W 075°35'0 0.0
2017-Sep-18 08:30N 39°35' W 075°35'0 0.0
2017-Sep-18 08:00N 39°35' W 075°35'0 0.0
2017-Sep-18 07:30N 39°35' W 075°35'0 0.0
2017-Sep-18 07:00N 39°35' W 075°35'0 0.0
2017-Sep-18 06:30N 39°35' W 075°35'0 0.0
2017-Sep-18 06:00N 39°35' W 075°35'0 0.0
2017-Sep-18 05:30N 39°35' W 075°35'0 0.0
2017-Sep-18 05:00N 39°35' W 075°35'0 0.0
2017-Sep-18 04:30N 39°35' W 075°35'0 0.1
2017-Sep-18 04:01N 39°35' W 075°35'2 4.4
2017-Sep-18 03:30N 39°34' W 075°33'3 6.3
2017-Sep-18 03:00N 39°31' W 075°33'4 8.1
2017-Sep-18 02:30N 39°27' W 075°33'612.3
2017-Sep-18 02:00N 39°22' W 075°27'510.3
2017-Sep-18 01:31N 39°18' W 075°23'510.2
2017-Sep-18 01:00N 39°14' W 075°19'612.2
2017-Sep-18 00:30N 39°09' W 075°15'510.4
2017-Sep-18 00:01N 39°05' W 075°11'510.2
2017-Sep-17 23:31N 38°60' W 075°08'510.6
2017-Sep-17 23:01N 38°55' W 075°06'3 5.7
2017-Sep-17 22:30N 38°55' W 075°09'4 8.0
2017-Sep-17 22:00N 38°58' W 075°12'0 0.1
2017-Sep-17 19:48N 38°58' W 075°12'0 0.5
2017-Sep-17 19:30N 38°58' W 075°12'0 0.2
2017-Sep-17 19:00N 38°58' W 075°12'4407.7
2017-Sep-17 19:00N 38°54' W 075°12'4 8.4 180 / 61019.1 5.4 24.020.221.2
2017-Sep-17 18:30N 38°58' W 075°12'0 0.1
2017-Sep-17 18:00N 38°58' W 075°12'0 0.0
2017-Sep-17 17:30N 38°58' W 075°12'0 0.0
2017-Sep-17 17:00N 38°58' W 075°12'0 0.0
2017-Sep-17 16:30N 38°58' W 075°12'0 0.0
2017-Sep-17 16:00N 38°58' W 075°12'4474.6
2017-Sep-17 16:00N 38°54' W 075°12'4 8.3 360 / 121019.810.8 24.519.121.1
2017-Sep-17 15:30N 38°58' W 075°12'0 0.0
2017-Sep-17 15:00N 38°58' W 075°12'0 0.0
2017-Sep-17 14:30N 38°58' W 075°12'0 0.0
2017-Sep-17 14:00N 38°58' W 075°12'0 0.4
2017-Sep-17 13:30N 38°58' W 075°12'0 0.2
2017-Sep-17 12:54N 38°58' W 075°12'0 0.1
2017-Sep-17 12:30N 38°58' W 075°12'0 0.0
2017-Sep-17 11:57N 38°58' W 075°12'0 0.1
2017-Sep-17 11:24N 38°58' W 075°12'0 0.0
2017-Sep-17 11:00N 38°58' W 075°12'0 0.0
2017-Sep-17 10:24N 38°58' W 075°12'0 0.0
2017-Sep-17 09:57N 38°58' W 075°12'0 0.0
2017-Sep-17 09:21N 38°58' W 075°12'0 0.0
2017-Sep-17 08:51N 38°58' W 075°12'0 0.0
2017-Sep-17 08:30N 38°58' W 075°12'0 0.1
2017-Sep-17 07:57N 38°58' W 075°12'0 0.3
2017-Sep-17 07:27N 38°58' W 075°12'0 0.2
2017-Sep-17 06:57N 38°58' W 075°12'0 0.2
2017-Sep-17 06:30N 38°58' W 075°12'0 0.1
2017-Sep-17 06:00N 38°58' W 075°12'0 0.1
2017-Sep-17 05:30N 38°58' W 075°12'0 0.0
2017-Sep-17 05:00N 38°58' W 075°12'0 0.0
2017-Sep-17 04:30N 38°58' W 075°12'0 0.0
2017-Sep-17 04:00N 38°58' W 075°12'0 0.0
2017-Sep-17 03:30N 38°58' W 075°12'0 0.0
2017-Sep-17 02:57N 38°58' W 075°12'0 0.0
2017-Sep-17 02:30N 38°58' W 075°12'0 0.1
2017-Sep-17 02:00N 38°58' W 075°12'0 0.0
2017-Sep-17 01:30N 38°58' W 075°12'0 0.2
2017-Sep-17 01:00N 38°58' W 075°12'0 0.2
2017-Sep-17 00:30N 38°58' W 075°12'0 0.1
2017-Sep-17 00:00N 38°58' W 075°12'0 0.0
2017-Sep-16 23:30N 38°58' W 075°12'0 0.0
2017-Sep-16 23:00N 38°58' W 075°12'0 0.0
2017-Sep-16 22:30N 38°58' W 075°12'0 0.0
2017-Sep-16 22:00N 38°58' W 075°12'0 0.0
2017-Sep-16 21:26N 38°58' W 075°12'0 0.0
2017-Sep-16 20:56N 38°58' W 075°12'0 0.0
2017-Sep-16 20:29N 38°58' W 075°12'4 8.7
2017-Sep-16 20:00N 38°54' W 075°12'43920.6 150 / 101019.4 5.4 24.021.020.9
2017-Sep-16 19:59N 38°58' W 075°12'0 0.0
2017-Sep-16 19:14N 38°58' W 075°12'0 0.0
2017-Sep-16 18:59N 38°58' W 075°12'0 0.1
2017-Sep-16 18:29N 38°58' W 075°12'0 0.3
2017-Sep-16 17:59N 38°58' W 075°12'0 0.2
2017-Sep-16 17:29N 38°58' W 075°12'0 0.1
2017-Sep-16 16:59N 38°58' W 075°12'0 0.0
2017-Sep-16 16:29N 38°58' W 075°12'0 0.0
2017-Sep-16 15:59N 38°58' W 075°12'0 0.0
2017-Sep-16 15:29N 38°58' W 075°12'0 0.0
2017-Sep-16 14:59N 38°58' W 075°12'0 0.0
2017-Sep-16 14:29N 38°58' W 075°12'0 0.0
2017-Sep-16 13:59N 38°58' W 075°12'0 0.0
2017-Sep-16 13:29N 38°58' W 075°12'0 0.0
2017-Sep-16 12:59N 38°58' W 075°12'0 0.3
2017-Sep-16 12:29N 38°58' W 075°12'4 8.6
2017-Sep-16 12:00N 38°54' W 075°12'4820.8 320 / 61019.8 0.3 22.020.520.8
2017-Sep-16 11:59N 38°58' W 075°12'0 0.0
2017-Sep-16 11:29N 38°58' W 075°12'0 0.0
2017-Sep-16 10:59N 38°58' W 075°12'0 0.0
2017-Sep-16 10:29N 38°58' W 075°12'0 0.0
2017-Sep-16 09:59N 38°58' W 075°12'0 0.0
2017-Sep-16 09:29N 38°58' W 075°12'0 0.0
2017-Sep-16 08:59N 38°58' W 075°12'0 0.0
2017-Sep-16 08:29N 38°58' W 075°12'4 8.8
2017-Sep-16 08:00N 38°54' W 075°12'4580.0 180 / 61018.7 5.4 22.019.720.6
2017-Sep-16 07:59N 38°58' W 075°12'0 0.0
2017-Sep-16 07:29N 38°58' W 075°12'0 0.1
2017-Sep-16 06:59N 38°58' W 075°12'0 0.1
2017-Sep-16 06:29N 38°58' W 075°12'0 0.1
2017-Sep-16 05:59N 38°58' W 075°12'0 0.4
2017-Sep-16 05:29N 38°58' W 075°12'0 0.1
2017-Sep-16 04:56N 38°58' W 075°12'0 0.0
2017-Sep-16 04:29N 38°58' W 075°12'612.6
2017-Sep-16 04:00N 38°54' W 075°06'623.7 220 / 51018.510.8 23.022.320.8
2017-Sep-16 03:44N 38°58' W 075°12'0 0.0
2017-Sep-16 03:29N 38°58' W 075°12'0 0.0
2017-Sep-16 02:59N 38°58' W 075°12'0 0.0
2017-Sep-16 02:29N 38°58' W 075°12'0 0.0
2017-Sep-16 01:59N 38°58' W 075°12'0 0.0
2017-Sep-16 01:29N 38°58' W 075°12'0 0.0
2017-Sep-16 00:59N 38°58' W 075°12'0 0.1
2017-Sep-16 00:29N 38°58' W 075°12'0 0.3
2017-Sep-15 23:59N 38°58' W 075°12'0 0.2
2017-Sep-15 23:26N 38°58' W 075°12'0 0.1
2017-Sep-15 22:59N 38°58' W 075°12'0 0.0
2017-Sep-15 22:29N 38°58' W 075°12'0 0.0
2017-Sep-15 21:59N 38°58' W 075°12'0 0.0
2017-Sep-15 21:29N 38°58' W 075°12'0 0.0
2017-Sep-15 20:59N 38°58' W 075°12'4 4.4
2017-Sep-15 20:00N 38°54' W 075°12'470.0 160 / 41017.0 5.4 24.019.420.9
2017-Sep-15 19:56N 38°58' W 075°12'0 0.0
2017-Sep-15 17:41N 38°58' W 075°12'0 0.4
2017-Sep-15 17:29N 38°58' W 075°12'0 0.3
2017-Sep-15 16:59N 38°58' W 075°12'0 0.1
2017-Sep-15 16:26N 38°58' W 075°12'4 9.5
2017-Sep-15 16:00N 38°54' W 075°12'4290.2 330 / 31016.510.8 26.519.620.8
2017-Sep-15 15:59N 38°58' W 075°12'0 0.0
2017-Sep-15 15:29N 38°58' W 075°12'0 0.0
2017-Sep-15 14:59N 38°58' W 075°12'0 0.0
2017-Sep-15 14:29N 38°58' W 075°12'0 0.0
2017-Sep-15 13:59N 38°58' W 075°12'0 0.0
2017-Sep-15 13:29N 38°58' W 075°12'0 0.0
2017-Sep-15 12:59N 38°58' W 075°12'0 0.0
2017-Sep-15 12:26N 38°58' W 075°12'4 9.5
2017-Sep-15 12:00N 38°54' W 075°12'4244.0 320 / 10 10.8 23.019.920.7
2017-Sep-15 11:58N 38°58' W 075°12'0 0.1
2017-Sep-15 11:25N 38°58' W 075°12'0 0.3
2017-Sep-15 10:58N 38°58' W 075°12'0 0.1
2017-Sep-15 10:28N 38°58' W 075°12'0 0.1
2017-Sep-15 09:58N 38°58' W 075°12'0 0.0
2017-Sep-15 09:22N 38°58' W 075°12'0 0.0
2017-Sep-15 08:58N 38°58' W 075°12'0 0.0
2017-Sep-15 08:28N 38°58' W 075°12'4 9.1
2017-Sep-15 08:00N 38°54' W 075°12'4224.3 190 / 121014.7 5.4 22.018.920.3
2017-Sep-15 07:58N 38°58' W 075°12'0 0.0
2017-Sep-15 07:28N 38°58' W 075°12'0 0.0
2017-Sep-15 06:58N 38°58' W 075°12'0 0.0
2017-Sep-15 06:25N 38°58' W 075°12'0 0.1
2017-Sep-15 05:55N 38°58' W 075°12'0 0.0
2017-Sep-15 05:28N 38°58' W 075°12'0 0.1
2017-Sep-15 04:58N 38°58' W 075°12'0 0.4
2017-Sep-15 04:28N 38°58' W 075°12'612.9
2017-Sep-15 04:00N 38°54' W 075°06'6296.9 210 / 141015.510.8 22.019.720.6
2017-Sep-15 03:58N 38°58' W 075°12'0 0.1
2017-Sep-15 03:28N 38°58' W 075°12'0 0.0
2017-Sep-15 02:58N 38°58' W 075°12'0 0.0
2017-Sep-15 02:28N 38°58' W 075°12'0 0.0
2017-Sep-15 01:58N 38°58' W 075°12'0 0.0
2017-Sep-15 01:28N 38°58' W 075°12'0 0.0
2017-Sep-15 00:58N 38°58' W 075°12'0 0.0
2017-Sep-15 00:28N 38°58' W 075°12'4 8.7
2017-Sep-15 00:00N 38°54' W 075°12'4189.5 220 / 101012.710.8 24.017.620.6
2017-Sep-14 23:58N 38°58' W 075°12'0 0.0
2017-Sep-14 23:28N 38°58' W 075°12'0 0.1
2017-Sep-14 22:58N 38°58' W 075°12'0 0.1
2017-Sep-14 22:28N 38°58' W 075°12'0 0.2
2017-Sep-14 21:58N 38°58' W 075°12'0 0.1
2017-Sep-14 21:28N 38°58' W 075°12'0 0.1
2017-Sep-14 20:58N 38°58' W 075°12'0 0.0
2017-Sep-14 20:01N 38°58' W 075°12'0 0.0
2017-Sep-14 19:58N 38°58' W 075°12'0 0.0
2017-Sep-14 19:28N 38°58' W 075°12'0 0.0
2017-Sep-14 18:58N 38°58' W 075°12'0 0.0
2017-Sep-14 18:19N 38°58' W 075°12'0 0.0
2017-Sep-14 17:55N 38°58' W 075°12'0 0.0
2017-Sep-14 17:25N 38°58' W 075°12'0 0.0
2017-Sep-14 16:58N 38°58' W 075°12'0 0.1
2017-Sep-14 16:22N 38°58' W 075°12'617.1
2017-Sep-14 16:00N 38°54' W 075°06'6239.6 200 / 91013.410.8 25.018.820.4
2017-Sep-14 15:58N 38°58' W 075°12'0 0.3
2017-Sep-14 15:28N 38°58' W 075°12'0 0.1
2017-Sep-14 14:58N 38°58' W 075°12'0 0.0
2017-Sep-14 14:28N 38°58' W 075°12'0 0.0
2017-Sep-14 13:58N 38°58' W 075°12'0 0.1
2017-Sep-14 13:28N 38°58' W 075°12'0 0.0
2017-Sep-14 12:55N 38°58' W 075°12'0 0.0
2017-Sep-14 12:25N 38°58' W 075°12'4 9.8
2017-Sep-14 12:00N 38°54' W 075°12'4147.0 220 / 181012.110.8 22.520.220.3
2017-Sep-14 11:58N 38°58' W 075°12'0 0.1
2017-Sep-14 11:28N 38°58' W 075°12'0 0.1
2017-Sep-14 10:52N 38°58' W 075°12'0 0.0
2017-Sep-14 10:26N 38°58' W 075°12'0 0.1
2017-Sep-14 09:59N 38°58' W 075°12'0 0.1
2017-Sep-14 09:29N 38°58' W 075°12'0 0.1
2017-Sep-14 08:59N 38°58' W 075°12'0 0.0
2017-Sep-14 08:29N 38°58' W 075°12'4 8.9
2017-Sep-14 08:00N 38°54' W 075°12'4490.1 180 / 151012.4 5.4 21.017.820.4
2017-Sep-14 07:59N 38°58' W 075°12'0 0.0
2017-Sep-14 07:29N 38°58' W 075°12'0 0.0
2017-Sep-14 06:59N 38°58' W 075°12'0 0.0
2017-Sep-14 06:29N 38°58' W 075°12'0 0.0
2017-Sep-14 05:59N 38°58' W 075°12'0 0.0
2017-Sep-14 05:29N 38°58' W 075°12'0 0.0
2017-Sep-14 04:59N 38°58' W 075°12'0 0.1
2017-Sep-14 04:29N 38°58' W 075°12'4 8.9
2017-Sep-14 04:00N 38°54' W 075°12'4394.0 190 / 111012.410.8 22.021.220.4
2017-Sep-14 03:59N 38°58' W 075°12'0 0.2
2017-Sep-14 03:23N 38°58' W 075°12'0 0.0
2017-Sep-14 02:59N 38°58' W 075°12'0 0.1
2017-Sep-14 02:29N 38°58' W 075°12'0 0.1
2017-Sep-14 01:59N 38°58' W 075°12'0 0.0
2017-Sep-14 01:29N 38°58' W 075°12'0 0.0
2017-Sep-14 00:59N 38°58' W 075°12'0 0.0
2017-Sep-14 00:29N 38°58' W 075°12'4 8.4
2017-Sep-14 00:00N 38°54' W 075°12'4336.8 170 / 101010.510.8 23.019.920.4
2017-Sep-13 23:59N 38°58' W 075°12'0 0.0
2017-Sep-13 23:29N 38°58' W 075°12'0 0.1
2017-Sep-13 22:59N 38°58' W 075°12'0 0.3
2017-Sep-13 22:29N 38°58' W 075°12'0 0.1
2017-Sep-13 21:59N 38°58' W 075°12'0 0.1
2017-Sep-13 21:29N 38°58' W 075°12'0 0.1
2017-Sep-13 20:59N 38°58' W 075°12'0 0.0
2017-Sep-13 20:26N 38°58' W 075°12'0 0.0
2017-Sep-13 19:59N 38°58' W 075°12'0 0.0
2017-Sep-13 17:56N 38°58' W 075°12'0 0.0
2017-Sep-13 17:26N 38°58' W 075°12'0 0.0
2017-Sep-13 16:59N 38°58' W 075°12'0 0.0
2017-Sep-13 16:26N 38°58' W 075°12'410.0
2017-Sep-13 16:00N 38°54' W 075°12'437.5 150 / 141014.1 5.4 22.021.220.3
2017-Sep-13 15:53N 38°58' W 075°12'0 0.0
2017-Sep-13 15:29N 38°58' W 075°12'0 0.0
2017-Sep-13 14:56N 38°58' W 075°12'0 0.3
2017-Sep-13 14:29N 38°58' W 075°12'0 0.3
2017-Sep-13 13:58N 38°58' W 075°12'0 0.0
2017-Sep-13 13:25N 38°58' W 075°12'0 0.1
2017-Sep-13 12:58N 38°58' W 075°12'0 0.0
2017-Sep-13 12:28N 38°58' W 075°12'4 8.5
2017-Sep-13 12:00N 38°54' W 075°12'4217.3 150 / 91013.910.8 21.017.820.3
2017-Sep-13 11:58N 38°58' W 075°12'0 0.0
2017-Sep-13 11:25N 38°58' W 075°12'0 0.0
2017-Sep-13 10:58N 38°58' W 075°12'0 0.0
2017-Sep-13 10:28N 38°58' W 075°12'0 0.0
2017-Sep-13 09:58N 38°58' W 075°12'0 0.2
2017-Sep-13 09:28N 38°58' W 075°12'0 0.3
2017-Sep-13 08:58N 38°58' W 075°12'0 0.1
2017-Sep-13 08:28N 38°58' W 075°12'0 0.0
2017-Sep-13 07:58N 38°58' W 075°12'0 0.0
2017-Sep-13 07:28N 38°58' W 075°12'0 0.0
2017-Sep-13 06:58N 38°58' W 075°12'0 0.0
2017-Sep-13 06:28N 38°58' W 075°12'0 0.0
2017-Sep-13 05:58N 38°58' W 075°12'0 0.0
2017-Sep-13 05:28N 38°58' W 075°12'0 0.0
2017-Sep-13 04:58N 38°58' W 075°12'0 0.0
2017-Sep-13 04:28N 38°58' W 075°12'0 0.0
2017-Sep-13 03:58N 38°58' W 075°12'0 0.0
2017-Sep-13 03:25N 38°58' W 075°12'0 0.2
2017-Sep-13 02:58N 38°58' W 075°12'0 0.3
2017-Sep-13 02:28N 38°58' W 075°12'0 0.1
2017-Sep-13 01:58N 38°58' W 075°12'0 0.1
2017-Sep-13 01:28N 38°58' W 075°12'0 0.0
2017-Sep-13 00:58N 38°58' W 075°12'0 0.0
2017-Sep-13 00:28N 38°58' W 075°12'0 0.1
2017-Sep-12 23:58N 38°58' W 075°12'0 0.0
2017-Sep-12 23:28N 38°58' W 075°12'0 0.0
2017-Sep-12 22:55N 38°58' W 075°12'0 0.0
2017-Sep-12 22:28N 38°58' W 075°12'0 0.0
2017-Sep-12 21:55N 38°58' W 075°12'0 0.1
2017-Sep-12 21:28N 38°58' W 075°12'0 0.1
2017-Sep-12 20:58N 38°58' W 075°12'0 0.2
2017-Sep-12 20:28N 38°58' W 075°12'4 9.1
2017-Sep-12 20:00N 38°54' W 075°12'4170.2 220 / 51015.0 5.4 21.014.220.4
2017-Sep-12 19:58N 38°58' W 075°12'0 0.1
2017-Sep-12 19:28N 38°58' W 075°12'0 0.1
2017-Sep-12 18:52N 38°58' W 075°12'0 0.0
2017-Sep-12 18:28N 38°58' W 075°12'0 0.0
2017-Sep-12 16:52N 38°58' W 075°12'0 0.0
2017-Sep-12 16:28N 38°58' W 075°12'0 0.0
2017-Sep-12 15:58N 38°58' W 075°12'0 0.0
2017-Sep-12 15:25N 38°58' W 075°12'0 0.1
2017-Sep-12 14:55N 38°58' W 075°12'0 0.1
2017-Sep-12 14:25N 38°58' W 075°12'0 0.2
2017-Sep-12 13:58N 38°58' W 075°12'0 0.3
2017-Sep-12 13:28N 38°58' W 075°12'0 0.2
2017-Sep-12 12:58N 38°58' W 075°12'0 0.0
2017-Sep-12 09:13N 38°58' W 075°12'0 0.0
2017-Sep-12 08:55N 38°58' W 075°12'0 0.0
2017-Sep-12 08:28N 38°58' W 075°12'0 0.1
2017-Sep-12 07:52N 38°58' W 075°12'0 0.2
2017-Sep-12 07:28N 38°58' W 075°12'0 0.1
2017-Sep-12 06:58N 38°58' W 075°12'0 0.1
2017-Sep-12 06:28N 38°58' W 075°12'0 0.0
2017-Sep-12 05:58N 38°58' W 075°12'0 0.0
2017-Sep-12 05:28N 38°58' W 075°12'0 0.0
2017-Sep-12 04:55N 38°58' W 075°12'0 0.0
2017-Sep-12 04:30N 38°58' W 075°12'0 0.0
2017-Sep-12 04:00N 38°58' W 075°12'4270.0
2017-Sep-12 04:00N 38°54' W 075°12'4 8.1 280 / 51021.110.8 19.514.420.6
2017-Sep-12 03:27N 38°58' W 075°12'0 0.0
2017-Sep-12 02:57N 38°58' W 075°12'0 0.2
2017-Sep-12 02:30N 38°58' W 075°12'0 0.2
2017-Sep-12 02:00N 38°58' W 075°12'0 0.0
2017-Sep-12 01:27N 38°58' W 075°12'0 0.1
2017-Sep-12 01:00N 38°58' W 075°12'0 0.1
2017-Sep-12 00:30N 38°58' W 075°12'0 0.0
2017-Sep-11 23:57N 38°58' W 075°12'0 0.0
2017-Sep-11 23:30N 38°58' W 075°12'0 0.0
2017-Sep-11 23:00N 38°58' W 075°12'0 0.0
2017-Sep-11 22:30N 38°58' W 075°12'0 0.0
2017-Sep-11 22:00N 38°58' W 075°12'0 0.0
2017-Sep-11 21:30N 38°58' W 075°12'0 0.0
2017-Sep-11 21:00N 38°58' W 075°12'0 0.1
2017-Sep-11 20:30N 38°58' W 075°12'0 0.1
2017-Sep-11 20:00N 38°58' W 075°12'0 0.2
2017-Sep-11 19:30N 38°58' W 075°12'0 0.2
2017-Sep-11 19:00N 38°58' W 075°12'0 0.2
2017-Sep-11 18:30N 38°58' W 075°12'0 0.1
2017-Sep-11 18:00N 38°58' W 075°12'4 2.2
2017-Sep-11 16:00N 38°54' W 075°12'4 5.2 050 / 121026.010.8 19.013.820.4
2017-Sep-11 15:09N 38°58' W 075°12'0 0.0
2017-Sep-11 15:00N 38°58' W 075°12'0 0.0
2017-Sep-11 14:30N 38°58' W 075°12'0 0.2
2017-Sep-11 13:57N 38°58' W 075°12'0 0.1
2017-Sep-11 13:30N 38°58' W 075°12'0 0.2
2017-Sep-11 13:00N 38°58' W 075°12'0 0.1
2017-Sep-11 12:30N 38°58' W 075°12'0 0.0
2017-Sep-11 12:00N 38°58' W 075°12'0 0.0
2017-Sep-11 11:30N 38°58' W 075°12'0 0.1
2017-Sep-11 11:00N 38°58' W 075°12'6738.9
2017-Sep-11 11:00N 38°54' W 075°06'612.5 050 / 131017.310.8 18.013.620.3
2017-Sep-11 10:30N 38°58' W 075°12'0 0.0
2017-Sep-11 10:00N 38°58' W 075°12'0 0.0
2017-Sep-11 09:30N 38°58' W 075°12'0 0.0
2017-Sep-11 09:00N 38°58' W 075°12'0 0.0
2017-Sep-11 08:30N 38°58' W 075°12'0 0.1
2017-Sep-11 08:00N 38°58' W 075°12'0 0.1
2017-Sep-11 07:30N 38°58' W 075°12'0 0.4
2017-Sep-11 06:54N 38°58' W 075°12'0 0.1
2017-Sep-11 06:27N 38°58' W 075°12'0 0.1
2017-Sep-11 05:51N 38°58' W 075°12'0 0.0
2017-Sep-11 02:45N 38°58' W 075°12'0 0.0
2017-Sep-11 02:00N 38°58' W 075°12'0 0.2
2017-Sep-11 01:27N 38°58' W 075°12'0 0.4
2017-Sep-11 01:00N 38°58' W 075°12'0 0.2
2017-Sep-11 00:30N 38°58' W 075°12'0 0.0
2017-Sep-11 00:00N 38°58' W 075°12'0 0.1
2017-Sep-10 23:30N 38°58' W 075°12'0 0.0
2017-Sep-10 23:00N 38°58' W 075°12'0 0.0
2017-Sep-10 22:27N 38°58' W 075°12'0 0.0
2017-Sep-10 22:00N 38°58' W 075°12'0 0.0
2017-Sep-10 21:30N 38°58' W 075°12'0 0.0
2017-Sep-10 21:00N 38°58' W 075°12'0 0.0
2017-Sep-10 20:30N 38°58' W 075°12'0 0.0
2017-Sep-10 19:57N 38°58' W 075°12'0 0.1
2017-Sep-10 19:27N 38°58' W 075°12'0 0.0
2017-Sep-10 19:00N 38°58' W 075°12'67403.2
2017-Sep-10 19:00N 38°54' W 075°06'612.5 320 / 81027.6 5.4 23.012.620.4
2017-Sep-10 18:30N 38°58' W 075°12'0 0.2
2017-Sep-10 17:21N 38°58' W 075°12'0 0.0
2017-Sep-10 16:57N 38°58' W 075°12'0 0.0
2017-Sep-10 16:30N 38°58' W 075°12'0 0.0
2017-Sep-10 16:00N 38°58' W 075°12'0 0.0
2017-Sep-10 15:29N 38°58' W 075°12'0 0.0
2017-Sep-10 14:53N 38°58' W 075°12'0 0.1
2017-Sep-10 13:59N 38°58' W 075°12'0 0.2
2017-Sep-10 13:29N 38°58' W 075°12'0 0.1
2017-Sep-10 12:50N 38°58' W 075°12'0 0.1
2017-Sep-10 12:26N 38°58' W 075°12'0 0.1
2017-Sep-10 11:59N 38°58' W 075°12'0 0.1
2017-Sep-10 11:29N 38°58' W 075°12'0 0.0
2017-Sep-10 10:59N 38°58' W 075°12'0 0.0
2017-Sep-10 10:29N 38°58' W 075°12'0 0.0
2017-Sep-10 09:56N 38°58' W 075°12'0 0.0
2017-Sep-10 09:29N 38°58' W 075°12'0 0.0
2017-Sep-10 08:59N 38°58' W 075°12'0 0.0
2017-Sep-10 08:29N 38°58' W 075°12'0 0.0
2017-Sep-10 07:59N 38°58' W 075°12'0 0.0
2017-Sep-10 07:29N 38°58' W 075°12'0 0.0
2017-Sep-10 06:59N 38°58' W 075°12'0 0.0
2017-Sep-10 06:29N 38°58' W 075°12'0 0.0
2017-Sep-10 05:59N 38°58' W 075°12'0 0.0
2017-Sep-10 05:29N 38°58' W 075°12'0 0.2
2017-Sep-10 04:59N 38°58' W 075°12'0 0.3
2017-Sep-10 04:29N 38°58' W 075°12'4 8.6
2017-Sep-10 04:00N 38°54' W 075°12'4702.1 010 / 201026.510.8 18.0 9.520.6
2017-Sep-10 03:59N 38°58' W 075°12'0 0.0
2017-Sep-10 03:29N 38°58' W 075°12'0 0.0
2017-Sep-10 02:59N 38°58' W 075°12'0 0.0
2017-Sep-10 02:29N 38°58' W 075°12'0 0.3
2017-Sep-10 01:59N 38°58' W 075°12'0 0.1
2017-Sep-10 01:29N 38°58' W 075°12'0 0.1
2017-Sep-10 00:59N 38°58' W 075°12'0 0.1
2017-Sep-10 00:26N 38°58' W 075°12'0 0.1
2017-Sep-09 23:59N 38°58' W 075°12'0 0.1
2017-Sep-09 23:26N 38°58' W 075°12'0 0.0
2017-Sep-09 22:56N 38°58' W 075°12'0 0.0
2017-Sep-09 22:29N 38°58' W 075°12'0 0.0
2017-Sep-09 21:59N 38°58' W 075°12'0 0.0
2017-Sep-09 21:29N 38°58' W 075°12'0 0.0
2017-Sep-09 20:59N 38°58' W 075°12'0 0.0
2017-Sep-09 20:26N 38°58' W 075°12'0 0.0
2017-Sep-09 19:59N 38°58' W 075°12'0 0.0
2017-Sep-09 19:29N 38°58' W 075°12'0 0.0
2017-Sep-09 18:59N 38°58' W 075°12'  

Dump ship's entire track history